Terminal Aerodrome Forecast
Issued by NWS

Home | Current Version | Previous Version | Text Only | Print | Product List | Glossary Off
Versions: 1 2 3 4 5 6 7 8 9 10 11 12 13 14 15 16 17 18 19 20 21 22

000
FTUS43 KABR 251007 AAB
TAFATY
TAF AMD
KATY 251007Z 2510/2606 VRB05KT P6SM SKC
      TEMPO 2510/2512 3SM BR
     FM251600 03006KT P6SM SKC=

USA.gov is the U.S. government's official web portal to all federal, state and local government web resources and services.